createdAt,value
2023-01-21T00:01:14.916Z,19.73
2023-01-21T00:03:42.719Z,18.80
2023-01-21T00:06:10.414Z,20.90
2023-01-21T00:08:37.541Z,15.53
2023-01-21T00:11:11.462Z,17.73
2023-01-21T00:13:38.450Z,18.10
2023-01-21T00:16:06.470Z,17.03
2023-01-21T00:18:34.666Z,23.80
2023-01-21T00:21:02.322Z,16.70
2023-01-21T00:23:29.453Z,27.30
2023-01-21T00:26:05.865Z,25.27
2023-01-21T00:28:34.911Z,25.33
2023-01-21T00:31:05.357Z,27.40
2023-01-21T00:33:33.556Z,32.43
2023-01-21T00:36:13.936Z,18.50
2023-01-21T00:38:41.284Z,16.67
2023-01-21T00:41:12.575Z,18.80
2023-01-21T00:43:43.504Z,16.73
2023-01-21T00:46:11.342Z,15.70
2023-01-21T00:48:38.475Z,17.70
2023-01-21T00:51:05.768Z,15.30
2023-01-21T00:53:35.978Z,16.50
2023-01-21T00:56:06.653Z,13.73
2023-01-21T00:58:34.812Z,12.47
2023-01-21T01:01:11.312Z,19.87
2023-01-21T01:03:40.238Z,13.37
2023-01-21T01:06:17.491Z,14.20
2023-01-21T01:08:45.684Z,14.77
2023-01-21T01:11:14.119Z,20.00
2023-01-21T01:13:41.595Z,15.43
2023-01-21T01:16:10.996Z,14.30
2023-01-21T01:18:38.153Z,15.70
2023-01-21T01:21:06.107Z,16.83
2023-01-21T01:23:33.203Z,13.83
2023-01-21T01:26:06.610Z,11.77
2023-01-21T01:28:34.602Z,17.37
2023-01-21T01:31:05.565Z,13.43
2023-01-21T01:33:33.360Z,14.60
2023-01-21T01:36:10.766Z,13.80
2023-01-21T01:38:37.648Z,15.40
2023-01-21T01:41:04.973Z,18.50
2023-01-21T01:44:26.226Z,17.90
2023-01-21T01:46:56.998Z,17.30
2023-01-21T01:49:24.137Z,16.77
2023-01-21T01:51:58.118Z,19.03
2023-01-21T01:54:30.434Z,20.37
2023-01-21T01:57:02.010Z,21.53
2023-01-21T01:59:30.447Z,24.13
2023-01-21T02:02:01.050Z,21.20
2023-01-21T02:04:34.671Z,22.23
2023-01-21T02:07:01.853Z,19.30
2023-01-21T02:09:30.005Z,22.67
2023-01-21T02:11:59.898Z,22.90
2023-01-21T02:14:28.577Z,21.30
2023-01-21T02:17:45.662Z,23.20
2023-01-21T02:20:24.522Z,24.03
2023-01-21T02:23:49.389Z,22.40
2023-01-21T02:26:48.889Z,23.93
2023-01-21T02:29:40.217Z,20.47
2023-01-21T02:33:03.474Z,23.13
2023-01-21T02:35:59.661Z,18.70
2023-01-21T02:38:31.511Z,19.97
2023-01-21T02:41:35.730Z,20.37
2023-01-21T02:44:15.202Z,21.20
2023-01-21T02:46:56.675Z,20.37
2023-01-21T02:49:52.932Z,21.97
2023-01-21T02:52:23.445Z,18.13
2023-01-21T02:54:57.203Z,17.40
2023-01-21T02:57:56.580Z,19.10
2023-01-21T03:00:42.503Z,17.13
2023-01-21T03:03:23.284Z,16.50
2023-01-21T03:06:20.067Z,16.90
2023-01-21T03:09:25.484Z,20.87
2023-01-21T03:12:20.534Z,18.30
2023-01-21T03:15:19.721Z,19.73
2023-01-21T03:18:08.522Z,20.97
2023-01-21T03:20:44.000Z,18.73
2023-01-21T03:23:19.516Z,20.80
2023-01-21T03:25:48.655Z,23.30
2023-01-21T03:28:22.076Z,23.10
2023-01-21T03:31:00.241Z,21.33
2023-01-21T03:33:30.738Z,30.93
2023-01-21T03:36:00.852Z,22.90
2023-01-21T03:38:37.624Z,21.33
2023-01-21T03:41:13.658Z,23.80
2023-01-21T03:43:40.820Z,22.43
2023-01-21T03:46:12.717Z,22.27
2023-01-21T03:48:49.225Z,25.13
2023-01-21T03:51:22.787Z,26.57
2023-01-21T03:53:58.060Z,25.80
2023-01-21T03:56:28.624Z,24.70
2023-01-21T03:58:55.636Z,28.80
2023-01-21T04:01:22.931Z,25.47
2023-01-21T04:03:49.887Z,23.20
2023-01-21T04:06:20.643Z,23.77
2023-01-21T04:08:48.653Z,24.87
2023-01-21T04:11:15.978Z,25.10
2023-01-21T04:13:43.158Z,27.67
2023-01-21T04:16:10.108Z,27.83
2023-01-21T04:18:37.044Z,25.87
2023-01-21T04:21:04.133Z,26.53
2023-01-21T04:23:31.183Z,29.50
2023-01-21T04:25:58.102Z,27.40
2023-01-21T04:28:25.048Z,28.00
2023-01-21T04:30:52.125Z,32.20
2023-01-21T04:33:19.042Z,31.00
2023-01-21T04:35:45.964Z,26.50
2023-01-21T04:38:13.788Z,26.73
2023-01-21T04:40:40.708Z,29.60
2023-01-21T04:43:07.986Z,32.43
2023-01-21T04:45:34.997Z,31.00
2023-01-21T04:48:01.985Z,29.97
2023-01-21T04:50:28.918Z,30.87
2023-01-21T04:52:55.805Z,32.40
2023-01-21T04:55:24.244Z,33.47
2023-01-21T04:57:53.005Z,27.07
2023-01-21T05:00:20.351Z,28.50
2023-01-21T05:02:47.226Z,30.90
2023-01-21T05:05:14.270Z,30.40
2023-01-21T05:07:41.132Z,34.27
2023-01-21T05:10:09.920Z,32.77
2023-01-21T05:12:36.840Z,28.90
2023-01-21T05:15:04.849Z,28.40
2023-01-21T05:17:31.716Z,27.83
2023-01-21T05:19:58.611Z,31.17
2023-01-21T05:22:25.584Z,31.70
2023-01-21T05:24:52.440Z,28.67
2023-01-21T05:27:21.653Z,32.30
2023-01-21T05:29:48.881Z,29.83
2023-01-21T05:32:15.791Z,30.40
2023-01-21T05:34:42.761Z,30.53
2023-01-21T05:37:10.966Z,26.37
2023-01-21T05:39:37.855Z,27.10
2023-01-21T05:42:04.831Z,33.37
2023-01-21T05:44:31.719Z,28.30
2023-01-21T05:46:58.573Z,29.50
2023-01-21T05:49:25.545Z,27.00
2023-01-21T05:51:52.462Z,32.90
2023-01-21T05:54:19.435Z,28.70
2023-01-21T05:56:46.336Z,29.87
2023-01-21T05:59:13.342Z,32.10
2023-01-21T06:01:40.202Z,26.17
2023-01-21T06:04:07.136Z,34.40
2023-01-21T06:06:34.172Z,26.37
2023-01-21T06:09:01.094Z,30.07
2023-01-21T06:11:28.044Z,26.53
2023-01-21T06:13:54.914Z,33.30
2023-01-21T06:16:21.762Z,29.83
2023-01-21T06:18:48.680Z,23.77
2023-01-21T06:21:15.674Z,26.53
2023-01-21T06:23:42.902Z,21.40
2023-01-21T06:26:09.779Z,27.80
2023-01-21T06:28:36.663Z,23.37
2023-01-21T06:31:03.691Z,25.87
2023-01-21T06:33:30.658Z,24.80
2023-01-21T06:35:57.560Z,26.07
2023-01-21T06:38:24.587Z,28.70
2023-01-21T06:40:51.478Z,25.60
2023-01-21T06:43:18.364Z,21.40
2023-01-21T06:45:48.009Z,26.00
2023-01-21T06:48:14.901Z,29.87
2023-01-21T06:50:41.819Z,23.10
2023-01-21T06:53:08.782Z,23.70
2023-01-21T06:55:35.674Z,25.60
2023-01-21T06:58:02.556Z,23.93
2023-01-21T07:00:29.632Z,24.20
2023-01-21T07:02:59.762Z,22.00
2023-01-21T07:05:27.508Z,25.23
2023-01-21T07:07:56.066Z,21.03
2023-01-21T07:10:26.485Z,27.50
2023-01-21T07:12:53.398Z,25.23
2023-01-21T07:15:20.337Z,21.23
2023-01-21T07:17:47.272Z,21.43
2023-01-21T07:20:14.350Z,23.80
2023-01-21T07:22:41.244Z,21.23
2023-01-21T07:25:09.192Z,22.40
2023-01-21T07:27:36.130Z,24.10
2023-01-21T07:30:03.156Z,24.63
2023-01-21T07:32:30.115Z,23.30
2023-01-21T07:34:56.994Z,24.07
2023-01-21T07:37:23.911Z,20.43
2023-01-21T07:39:52.229Z,21.43
2023-01-21T07:42:20.010Z,22.40
2023-01-21T07:44:47.004Z,24.50
2023-01-21T07:47:13.911Z,23.10
2023-01-21T07:49:41.459Z,26.83
2023-01-21T07:52:08.357Z,22.47
2023-01-21T07:54:35.306Z,21.00
2023-01-21T07:57:02.236Z,22.03
2023-01-21T07:59:29.115Z,21.87
2023-01-21T08:01:57.924Z,30.50
2023-01-21T08:04:25.439Z,23.50
2023-01-21T08:06:56.894Z,26.83
2023-01-21T08:09:24.909Z,28.90
2023-01-21T08:11:52.405Z,26.67
2023-01-21T08:14:19.383Z,28.77
2023-01-21T08:16:46.305Z,29.70
2023-01-21T08:19:14.015Z,26.27
2023-01-21T08:21:41.109Z,23.07
2023-01-21T08:24:10.493Z,26.67
2023-01-21T08:26:37.604Z,27.40
2023-01-21T08:29:04.545Z,29.23
2023-01-21T08:31:31.669Z,28.67
2023-01-21T08:33:59.557Z,30.17
2023-01-21T08:36:26.838Z,28.30
2023-01-21T08:38:55.331Z,33.23
2023-01-21T08:41:22.283Z,27.00
2023-01-21T08:43:49.314Z,30.23
2023-01-21T08:46:16.290Z,33.33
2023-01-21T08:48:43.238Z,31.70
2023-01-21T08:51:10.403Z,30.50
2023-01-21T08:53:37.331Z,34.43
2023-01-21T08:56:05.736Z,34.93
2023-01-21T08:58:33.019Z,33.40
2023-01-21T09:01:08.310Z,28.90
2023-01-21T09:03:35.611Z,32.37
2023-01-21T09:06:03.998Z,29.50
2023-01-21T09:08:31.169Z,31.43
2023-01-21T09:11:03.069Z,27.73
2023-01-21T09:13:32.225Z,27.90
2023-01-21T09:16:00.571Z,22.70
2023-01-21T09:18:27.949Z,29.83
2023-01-21T09:21:00.499Z,27.30
2023-01-21T09:23:28.148Z,26.40
2023-01-21T09:26:02.305Z,28.30
2023-01-21T09:28:30.589Z,22.63
2023-01-21T09:31:07.303Z,23.90
2023-01-21T09:33:38.316Z,23.67
2023-01-21T09:36:07.658Z,22.13
2023-01-21T09:38:34.991Z,23.23
2023-01-21T09:41:50.620Z,24.07
2023-01-21T09:44:23.672Z,27.23
2023-01-21T09:47:02.272Z,23.07
2023-01-21T09:49:42.411Z,23.30
2023-01-21T09:52:38.009Z,24.87
2023-01-21T09:55:12.178Z,23.23
2023-01-21T09:58:20.709Z,24.93
2023-01-21T10:01:24.522Z,25.13
2023-01-21T10:04:30.018Z,24.87
2023-01-21T10:07:17.105Z,23.83
2023-01-21T10:09:47.052Z,26.03
2023-01-21T10:13:05.987Z,28.20
2023-01-21T10:15:35.724Z,24.60
2023-01-21T10:18:13.160Z,25.07
2023-01-21T10:21:05.822Z,25.30
2023-01-21T10:23:39.529Z,31.60
2023-01-21T10:26:11.985Z,24.83
2023-01-21T10:28:48.071Z,24.43
2023-01-21T10:31:32.781Z,26.50
2023-01-21T10:33:59.734Z,30.00
2023-01-21T10:36:35.008Z,24.33
2023-01-21T10:39:27.182Z,30.63
2023-01-21T10:42:03.859Z,25.00
2023-01-21T10:45:01.523Z,25.20
2023-01-21T10:47:59.664Z,25.53
2023-01-21T10:50:50.453Z,25.87
2023-01-21T10:53:31.088Z,20.63
2023-01-21T10:56:36.339Z,23.27
2023-01-21T10:59:09.706Z,22.60
2023-01-21T11:01:45.388Z,22.30
2023-01-21T11:04:21.463Z,21.57
2023-01-21T11:07:02.404Z,24.67
2023-01-21T11:09:35.321Z,25.27
2023-01-21T11:12:03.013Z,27.70
2023-01-21T11:14:30.063Z,26.73
2023-01-21T11:16:58.138Z,26.53
2023-01-21T11:19:30.904Z,21.97
2023-01-21T11:22:12.539Z,22.13
2023-01-21T11:24:48.814Z,21.60
2023-01-21T11:27:37.565Z,20.57
2023-01-21T11:30:21.078Z,22.10
2023-01-21T11:32:54.390Z,21.57
2023-01-21T11:35:23.152Z,22.40
2023-01-21T11:37:50.194Z,24.20
2023-01-21T11:40:25.749Z,20.90
2023-01-21T11:42:56.112Z,19.20
2023-01-21T11:45:36.836Z,19.20
2023-01-21T11:48:24.071Z,23.00
2023-01-21T11:51:05.808Z,24.57
2023-01-21T11:53:32.847Z,20.07
2023-01-21T11:56:01.303Z,22.40
2023-01-21T11:58:37.854Z,20.83
2023-01-21T12:01:19.412Z,21.10
2023-01-21T12:03:53.923Z,20.77
2023-01-21T12:06:25.999Z,18.00
2023-01-21T12:08:57.354Z,20.93
2023-01-21T12:11:27.141Z,28.07
2023-01-21T12:14:34.496Z,22.30
2023-01-21T12:17:21.927Z,17.40
2023-01-21T12:20:11.852Z,20.83
2023-01-21T12:22:46.314Z,21.60
2023-01-21T12:25:42.238Z,22.20
2023-01-21T12:28:21.577Z,23.27
2023-01-21T12:31:23.845Z,19.07
2023-01-21T12:34:15.928Z,26.67
2023-01-21T12:36:53.195Z,26.27
2023-01-21T12:39:35.832Z,26.70
2023-01-21T12:42:21.426Z,22.23
2023-01-21T12:44:52.357Z,20.80
2023-01-21T12:47:32.942Z,22.43
2023-01-21T12:50:29.379Z,22.23
2023-01-21T12:53:06.053Z,24.23
2023-01-21T12:56:08.057Z,24.67
2023-01-21T12:59:07.414Z,21.87
2023-01-21T13:02:05.907Z,26.40
2023-01-21T13:04:56.521Z,20.40
2023-01-21T13:07:55.276Z,18.77
2023-01-21T13:10:40.901Z,21.50
2023-01-21T13:13:21.307Z,25.57
2023-01-21T13:15:54.145Z,23.13
2023-01-21T13:18:50.280Z,17.93
2023-01-21T13:21:54.027Z,21.77
2023-01-21T13:24:53.071Z,19.93
2023-01-21T13:27:40.388Z,20.47
2023-01-21T13:30:20.026Z,24.57
2023-01-21T13:33:06.388Z,20.90
2023-01-21T13:35:57.925Z,20.90
2023-01-21T13:39:01.647Z,18.20
2023-01-21T13:42:32.933Z,19.90
2023-01-21T13:45:18.204Z,20.07
2023-01-21T13:48:16.266Z,23.20
2023-01-21T13:51:07.720Z,28.00
2023-01-21T13:54:04.479Z,17.57
2023-01-21T13:56:43.232Z,19.07
2023-01-21T13:59:21.648Z,20.07
2023-01-21T14:02:00.587Z,30.07
2023-01-21T14:04:39.069Z,22.23
2023-01-21T14:07:38.283Z,21.30
2023-01-21T14:10:22.528Z,20.77
2023-01-21T14:13:20.839Z,20.27
2023-01-21T14:16:29.631Z,21.13
2023-01-21T14:19:13.201Z,21.23
2023-01-21T14:22:04.394Z,16.60
2023-01-21T14:24:46.250Z,18.83
2023-01-21T14:27:27.913Z,15.77
2023-01-21T14:30:22.991Z,19.90
2023-01-21T14:33:07.909Z,20.83
2023-01-21T14:35:49.288Z,20.27
2023-01-21T14:39:06.433Z,22.10
2023-01-21T14:42:04.451Z,20.13
2023-01-21T14:44:40.323Z,16.00
2023-01-21T14:47:24.786Z,16.63
2023-01-21T14:49:54.347Z,14.70
2023-01-21T14:52:37.198Z,18.23
2023-01-21T14:55:29.555Z,21.60
2023-01-21T14:58:00.681Z,21.53
2023-01-21T15:00:36.878Z,18.50
2023-01-21T15:03:30.479Z,18.73
2023-01-21T15:06:09.057Z,18.43
2023-01-21T15:08:46.122Z,13.90
2023-01-21T15:11:30.416Z,15.13
2023-01-21T15:14:23.427Z,16.23
2023-01-21T15:16:50.627Z,15.37
2023-01-21T15:19:31.164Z,16.53
2023-01-21T15:22:19.088Z,16.63
2023-01-21T15:25:06.665Z,16.43
2023-01-21T15:27:33.563Z,10.60
2023-01-21T15:30:06.252Z,15.97
2023-01-21T15:32:41.027Z,14.67
2023-01-21T15:35:33.644Z,15.67
2023-01-21T15:38:12.539Z,12.60
2023-01-21T15:40:53.721Z,13.73
2023-01-21T15:43:54.956Z,15.00
2023-01-21T15:46:52.640Z,16.33
2023-01-21T15:50:16.043Z,10.90
2023-01-21T15:53:14.039Z,13.60
2023-01-21T15:56:17.945Z,12.00
2023-01-21T15:59:25.080Z,13.60
2023-01-21T16:02:08.483Z,10.47
2023-01-21T16:04:55.155Z,12.80
2023-01-21T16:08:12.304Z,12.20
2023-01-21T16:10:58.700Z,13.70
2023-01-21T16:13:37.372Z,13.37
2023-01-21T16:16:39.829Z,11.60
2023-01-21T16:19:11.661Z,12.80
2023-01-21T16:21:43.897Z,10.17
2023-01-21T16:24:19.047Z,12.10
2023-01-21T16:26:46.208Z,11.50
2023-01-21T16:29:15.163Z,11.93
2023-01-21T16:31:52.353Z,11.90
2023-01-21T16:34:40.252Z,11.37
2023-01-21T16:37:13.404Z,11.23
2023-01-21T16:39:41.931Z,9.43
2023-01-21T16:42:36.995Z,12.17
2023-01-21T16:45:21.632Z,9.03
2023-01-21T16:48:00.639Z,12.43
2023-01-21T16:50:29.771Z,10.70
2023-01-21T16:52:59.281Z,10.90
2023-01-21T16:55:30.896Z,11.53
2023-01-21T16:57:59.538Z,11.00
2023-01-21T17:00:32.339Z,10.90
2023-01-21T17:03:00.535Z,9.67
2023-01-21T17:05:33.827Z,7.30
2023-01-21T17:08:04.460Z,8.80
2023-01-21T17:10:40.376Z,7.97
2023-01-21T17:13:16.091Z,10.37
2023-01-21T17:15:59.938Z,10.23
2023-01-21T17:18:36.748Z,7.73
2023-01-21T17:21:36.878Z,8.60
2023-01-21T17:24:15.239Z,8.07
2023-01-21T17:26:49.898Z,9.80
2023-01-21T17:29:21.747Z,12.20
2023-01-21T17:31:58.428Z,8.30
2023-01-21T17:34:32.139Z,9.30
2023-01-21T17:36:59.918Z,8.60
2023-01-21T17:39:49.134Z,10.10
2023-01-21T17:42:23.795Z,10.10
2023-01-21T17:44:58.173Z,8.83
2023-01-21T17:47:49.093Z,10.60
2023-01-21T17:50:27.603Z,10.83
2023-01-21T17:53:01.599Z,7.87
2023-01-21T17:55:33.725Z,8.97
2023-01-21T17:58:32.504Z,7.30
2023-01-21T18:01:04.351Z,8.90
2023-01-21T18:03:31.284Z,10.60
2023-01-21T18:05:58.544Z,6.70
2023-01-21T18:08:25.735Z,8.77
2023-01-21T18:10:52.802Z,7.43
2023-01-21T18:13:21.989Z,7.60
2023-01-21T18:15:51.599Z,8.00
2023-01-21T18:18:27.948Z,10.33
2023-01-21T18:20:55.340Z,6.27
2023-01-21T18:23:22.323Z,10.80
2023-01-21T18:25:52.533Z,10.40
2023-01-21T18:28:28.957Z,7.93
2023-01-21T18:30:57.885Z,9.10
2023-01-21T18:33:25.818Z,10.00
2023-01-21T18:35:53.158Z,9.80
2023-01-21T18:38:27.218Z,8.47
2023-01-21T18:40:56.373Z,8.40
2023-01-21T18:43:25.249Z,10.00
2023-01-21T18:45:54.497Z,7.80
2023-01-21T18:48:28.440Z,7.63
2023-01-21T18:50:55.976Z,8.73
2023-01-21T18:53:23.037Z,8.60
2023-01-21T18:55:53.649Z,9.07
2023-01-21T18:58:20.721Z,7.83
2023-01-21T19:00:48.127Z,8.80
2023-01-21T19:03:16.111Z,8.17
2023-01-21T19:05:47.604Z,7.97
2023-01-21T19:08:21.889Z,9.13
2023-01-21T19:10:49.016Z,11.00
2023-01-21T19:13:16.031Z,11.17
2023-01-21T19:15:43.681Z,12.13
2023-01-21T19:18:16.036Z,13.30
2023-01-21T19:20:44.233Z,9.93
2023-01-21T19:23:17.644Z,14.07
2023-01-21T19:25:56.259Z,11.90
2023-01-21T19:28:25.080Z,8.37
2023-01-21T19:30:55.299Z,8.13
2023-01-21T19:33:23.463Z,10.70
2023-01-21T19:35:59.803Z,8.47
2023-01-21T19:38:27.003Z,11.00
2023-01-21T19:40:55.669Z,8.47
2023-01-21T19:43:23.458Z,8.57
2023-01-21T19:45:52.289Z,10.00
2023-01-21T19:48:21.498Z,9.30
2023-01-21T19:50:49.020Z,10.27
2023-01-21T19:53:20.810Z,11.20
2023-01-21T19:55:51.912Z,11.43
2023-01-21T19:58:22.842Z,9.67
2023-01-21T20:00:53.455Z,10.97
2023-01-21T20:03:23.075Z,10.23
2023-01-21T20:05:53.818Z,9.13
2023-01-21T20:08:27.950Z,10.00
2023-01-21T20:10:55.272Z,7.10
2023-01-21T20:13:22.759Z,9.23
2023-01-21T20:15:51.831Z,9.00
2023-01-21T20:18:28.108Z,11.50
2023-01-21T20:20:55.330Z,7.73
2023-01-21T20:23:23.710Z,7.97
2023-01-21T20:25:56.637Z,8.53
2023-01-21T20:28:34.988Z,7.57
2023-01-21T20:31:07.826Z,10.13
2023-01-21T20:33:36.130Z,7.00
2023-01-21T20:36:06.079Z,6.07
2023-01-21T20:38:38.405Z,6.43
2023-01-21T20:41:05.759Z,7.13
2023-01-21T20:43:33.105Z,7.43
2023-01-21T20:46:03.881Z,9.70
2023-01-21T20:48:35.889Z,6.47
2023-01-21T20:51:03.584Z,8.30
2023-01-21T20:53:31.130Z,8.87
2023-01-21T20:56:01.072Z,6.30
2023-01-21T20:58:28.113Z,8.00
2023-01-21T21:00:55.191Z,7.20
2023-01-21T21:03:22.173Z,7.00
2023-01-21T21:05:49.657Z,5.80
2023-01-21T21:08:20.482Z,6.00
2023-01-21T21:10:48.242Z,6.97
2023-01-21T21:13:15.171Z,6.83
2023-01-21T21:15:45.703Z,7.40
2023-01-21T21:18:14.570Z,7.50
2023-01-21T21:20:41.693Z,6.87
2023-01-21T21:23:15.295Z,6.10
2023-01-21T21:25:47.024Z,8.30
2023-01-21T21:28:16.889Z,7.07
2023-01-21T21:30:43.990Z,7.60
2023-01-21T21:33:19.024Z,7.27
2023-01-21T21:35:46.877Z,10.17
2023-01-21T21:38:21.969Z,7.80
2023-01-21T21:40:52.985Z,7.50
2023-01-21T21:43:33.364Z,8.60
2023-01-21T21:46:30.445Z,8.20
2023-01-21T21:48:57.465Z,8.00
2023-01-21T21:51:24.578Z,10.17
2023-01-21T21:53:51.796Z,8.57
2023-01-21T21:56:20.528Z,7.03
2023-01-21T21:58:48.104Z,7.30
2023-01-21T22:01:25.091Z,6.77
2023-01-21T22:03:52.902Z,8.13
2023-01-21T22:06:22.388Z,8.23
2023-01-21T22:08:49.855Z,6.87
2023-01-21T22:11:20.461Z,6.90
2023-01-21T22:13:50.536Z,7.10
2023-01-21T22:16:24.917Z,9.63
2023-01-21T22:18:52.811Z,8.77
2023-01-21T22:21:24.541Z,7.47
2023-01-21T22:23:52.243Z,9.40
2023-01-21T22:26:22.842Z,6.67
2023-01-21T22:28:53.015Z,9.47
2023-01-21T22:31:29.707Z,7.97
2023-01-21T22:33:58.363Z,9.30
2023-01-21T22:36:28.696Z,8.97
2023-01-21T22:38:55.749Z,10.33
2023-01-21T22:41:24.331Z,8.50
2023-01-21T22:43:52.266Z,8.73
2023-01-21T22:46:25.793Z,9.90
2023-01-21T22:48:56.140Z,12.30
2023-01-21T22:51:23.749Z,8.80
2023-01-21T22:53:51.892Z,9.57
2023-01-21T22:56:25.403Z,10.73
2023-01-21T22:58:58.618Z,11.37
2023-01-21T23:01:31.603Z,11.93
2023-01-21T23:03:59.849Z,13.37
2023-01-21T23:06:27.461Z,11.43
2023-01-21T23:08:55.614Z,11.03
2023-01-21T23:11:22.604Z,10.90
2023-01-21T23:13:49.896Z,11.37
2023-01-21T23:16:19.637Z,9.90
2023-01-21T23:18:47.083Z,12.10
2023-01-21T23:21:20.943Z,9.90
2023-01-21T23:23:49.129Z,9.43
2023-01-21T23:26:19.145Z,10.50
2023-01-21T23:28:47.205Z,10.90
2023-01-21T23:31:17.382Z,9.93
2023-01-21T23:33:44.806Z,13.47
2023-01-21T23:36:15.748Z,10.33
2023-01-21T23:38:43.302Z,10.97
2023-01-21T23:41:13.891Z,10.17
2023-01-21T23:43:41.056Z,12.87
2023-01-21T23:46:18.329Z,9.57
2023-01-21T23:48:45.600Z,11.73
2023-01-21T23:51:15.963Z,9.00
2023-01-21T23:53:43.147Z,9.20
2023-01-21T23:56:16.199Z,13.30
2023-01-21T23:58:43.828Z,10.23
